Time;durP1;ratioP1;P1;durP2;ratioP2;P2;SDS_P1;SDS_P2;PMS_P1;PMS_P2;Temp;Humidity;BMP_temperature;BMP_pressure;BME280_temperature;BME280_humidity;BME280_pressure;Samples;Min_cycle;Max_cycle;Signal;HPM_P1;HPM_P2
2022/04/27 00:01:53;;;;;;;;;16.33;15.33;;;;;11.28;49.44;101708.22;4994647;28;45277;-70
2022/04/27 00:04:18;;;;;;;;;14.00;14.00;;;;;11.34;50.30;101732.66;4996205;28;45322;-70
2022/04/27 00:06:49;;;;;;;;;51.67;42.33;;;;;10.95;50.47;101674.53;4996057;28;45495;-69
2022/04/27 00:09:14;;;;;;;;;19.33;16.00;;;;;11.19;50.65;101730.25;5030501;28;48406;-70
2022/04/27 00:11:40;;;;;;;;;18.00;17.00;;;;;11.19;50.61;101730.25;5015364;28;45366;-67
2022/04/27 00:14:05;;;;;;;;;18.00;17.00;;;;;11.17;50.51;101721.53;5015636;28;45521;-69
2022/04/27 00:16:30;;;;;;;;;18.00;17.33;;;;;11.22;50.71;101727.38;5015931;28;45316;-69
2022/04/27 00:18:56;;;;;;;;;21.67;18.67;;;;;11.19;50.83;101746.22;4995779;28;46428;-70
2022/04/27 00:21:22;;;;;;;;;15.67;14.00;;;;;11.16;50.57;101722.50;5015127;28;45230;-70
2022/04/27 00:23:47;;;;;;;;;19.67;18.00;;;;;11.17;50.49;101720.69;5015469;28;45304;-70
2022/04/27 00:26:15;;;;;;;;;19.33;17.67;;;;;10.82;50.66;101680.97;4997321;28;45469;-69
2022/04/27 00:28:40;;;;;;;;;15.67;14.67;;;;;11.19;50.74;101740.06;5006408;28;46503;-68
2022/04/27 00:31:06;;;;;;;;;15.33;14.67;;;;;11.05;50.38;101711.91;4995586;28;45370;-69
2022/04/27 00:33:32;;;;;;;;;15.33;14.33;;;;;11.15;50.51;101718.16;4993933;28;45476;-69
2022/04/27 00:35:57;;;;;;;;;12.33;12.00;;;;;11.11;50.95;101724.72;4978030;28;45486;-69
2022/04/27 00:38:22;;;;;;;;;14.33;14.33;;;;;10.92;50.44;101676.59;4998792;28;46846;-69
2022/04/27 00:40:48;;;;;;;;;17.00;16.00;;;;;11.21;50.53;101727.47;5014918;28;45390;-68
2022/04/27 00:43:14;;;;;;;;;14.00;14.00;;;;;11.28;49.90;101734.84;5014917;28;45448;-68
2022/04/27 00:45:41;;;;;;;;;10.00;9.33;;;;;11.25;50.31;101723.59;4997177;28;45274;-69
2022/04/27 00:48:06;;;;;;;;;16.67;14.33;;;;;11.24;49.89;101728.09;5009641;28;47005;-70
2022/04/27 00:50:32;;;;;;;;;16.67;15.67;;;;;11.30;50.15;101733.88;4996054;28;45449;-70
2022/04/27 00:53:00;;;;;;;;;15.00;15.00;;;;;11.18;50.31;101728.56;4998945;28;45453;-71
2022/04/27 00:55:25;;;;;;;;;14.00;12.00;;;;;11.13;50.57;101725.44;4980740;28;45580;-68
2022/04/27 00:57:51;;;;;;;;;12.00;12.00;;;;;9.14;50.74;101412.59;4998173;28;46551;-72
2022/04/27 01:00:17;;;;;;;;;16.33;16.33;;;;;11.02;50.58;101735.25;5018103;28;45465;-69
2022/04/27 01:02:43;;;;;;;;;17.00;16.33;;;;;10.92;51.42;101721.81;5018644;28;45309;-69
2022/04/27 01:05:11;;;;;;;;;14.33;13.00;;;;;10.72;51.43;101694.16;5016986;28;45241;-69
2022/04/27 01:08:02;;;;;;;;;18.67;18.67;;;;;10.93;51.14;101723.53;5018369;28;45345;-68
2022/04/27 01:10:28;;;;;;;;;19.00;16.33;;;;;10.90;51.43;101729.09;4997967;28;45437;-70
2022/04/27 01:12:57;;;;;;;;;15.67;14.00;;;;;10.82;51.11;101720.88;4980654;28;45397;-69
2022/04/27 01:15:41;;;;;;;;;16.33;14.33;;;;;10.27;51.61;101632.16;4995062;28;45716;-68
2022/04/27 01:18:09;;;;;;;;;18.67;16.00;;;;;10.69;51.84;101718.34;4981340;28;47912;-67
2022/04/27 01:20:44;;;;;;;;;17.00;17.00;;;;;10.80;51.44;101717.47;5017951;28;45317;-68
2022/04/27 01:23:14;;;;;;;;;10.00;10.00;;;;;10.85;51.33;101725.97;5018242;28;45484;-68
2022/04/27 01:25:49;;;;;;;;;13.00;10.67;;;;;10.85;51.04;101710.00;5000770;28;45386;-68
2022/04/27 01:28:16;;;;;;;;;17.33;17.33;;;;;10.75;51.37;101709.03;5017289;28;45405;-70
2022/04/27 01:30:44;;;;;;;;;20.33;17.67;;;;;10.74;51.39;101716.16;5017596;28;45264;-68
2022/04/27 01:33:09;;;;;;;;;16.00;15.00;;;;;10.29;51.02;101646.19;4996250;28;45961;-69
2022/04/27 01:35:34;;;;;;;;;13.67;12.33;;;;;10.26;51.55;101627.81;5009136;28;45498;-67
2022/04/27 01:38:00;;;;;;;;;14.00;12.67;;;;;10.52;51.46;101690.41;4998990;28;48120;-69
2022/04/27 01:40:25;;;;;;;;;16.33;15.67;;;;;10.76;51.48;101727.50;5017775;28;46200;-69
2022/04/27 01:42:51;;;;;;;;;18.00;16.33;;;;;10.56;51.75;101704.31;4999785;28;45452;-68
2022/04/27 01:45:16;;;;;;;;;20.67;17.33;;;;;10.48;52.33;101712.03;5010880;28;45443;-69
2022/04/27 01:47:42;;;;;;;;;17.67;16.00;;;;;10.43;52.49;101719.53;4979996;28;48048;-69
2022/04/27 01:50:08;;;;;;;;;16.00;16.00;;;;;10.51;52.26;101717.13;4979918;28;45406;-69
2022/04/27 01:55:19;;;;;;;;;23.33;19.00;;;;;10.42;52.15;101713.38;5005213;28;45365;-68
2022/04/27 01:57:45;;;;;;;;;23.00;20.00;;;;;10.48;52.51;101723.53;5017580;28;45346;-69
2022/04/27 02:00:11;;;;;;;;;18.00;16.00;;;;;10.27;53.05;101710.09;5017294;28;45755;-67
2022/04/27 02:02:37;;;;;;;;;23.67;23.67;;;;;10.30;53.21;101730.25;4997145;28;45477;-69
2022/04/27 02:05:04;;;;;;;;;22.00;18.33;;;;;10.42;52.90;101729.31;5032490;28;45566;-69
2022/04/27 02:07:30;;;;;;;;;20.00;20.00;;;;;9.98;52.33;101635.22;5016941;28;46483;-70
2022/04/27 02:09:55;;;;;;;;;19.67;18.67;;;;;10.45;52.32;101718.44;5016871;28;45393;-69
2022/04/27 02:12:21;;;;;;;;;23.33;22.33;;;;;10.48;52.51;101728.84;5017202;28;45269;-69
2022/04/27 02:14:47;;;;;;;;;24.00;22.33;;;;;10.51;52.63;101738.38;5017050;28;45483;-67
2022/04/27 02:17:12;;;;;;;;;22.33;21.33;;;;;10.47;52.67;101736.94;5017148;28;46749;-68
2022/04/27 02:19:38;;;;;;;;;23.33;21.33;;;;;10.37;53.14;101723.50;5032226;28;45422;-69
2022/04/27 02:22:04;;;;;;;;;24.33;23.00;;;;;10.40;53.64;101741.88;4998964;28;45487;-66
2022/04/27 02:24:30;;;;;;;;;28.67;27.33;;;;;10.30;53.27;101719.63;4999618;28;45425;-69
2022/04/27 02:26:56;;;;;;;;;33.75;30.00;;;;;10.34;53.37;101732.56;4996887;28;45775;-68
2022/04/27 02:29:22;;;;;;;;;37.25;34.00;;;;;10.08;53.80;101715.09;4996994;28;45409;-68
2022/04/27 02:31:48;;;;;;;;;40.75;34.00;;;;;10.17;53.89;101726.81;4979334;28;45441;-69
2022/04/27 02:34:14;;;;;;;;;29.67;28.33;;;;;10.27;53.67;101735.81;5002315;28;45465;-68
2022/04/27 02:36:39;;;;;;;;;23.00;23.00;;;;;10.23;53.75;101723.75;4996761;28;46623;-69
2022/04/27 02:39:05;;;;;;;;;24.67;24.00;;;;;10.18;53.81;101721.38;4996964;28;45362;-68
2022/04/27 02:41:30;;;;;;;;;25.67;23.33;;;;;10.16;53.82;101714.50;4995839;28;45580;-69
2022/04/27 02:43:56;;;;;;;;;23.33;22.33;;;;;10.35;53.37;101736.91;4997432;28;45361;-67
2022/04/27 02:46:21;;;;;;;;;23.33;21.67;;;;;10.26;53.52;101718.19;4996856;28;45962;-69
2022/04/27 02:51:49;;;;;;;;;21.33;18.67;;;;;10.45;53.64;101734.41;4996803;28;45480;-68
2022/04/27 02:54:22;;;;;;;;;25.33;22.00;;;;;10.39;53.65;101729.53;4997053;28;45360;-68
2022/04/27 02:56:49;;;;;;;;;21.33;21.00;;;;;10.31;54.09;101737.28;4996534;28;46457;-68
2022/04/27 02:59:15;;;;;;;;;30.00;26.00;;;;;10.23;54.42;101723.75;4996569;28;45355;-68
2022/04/27 03:01:41;;;;;;;;;25.67;24.00;;;;;10.21;54.36;101737.16;4996910;28;45286;-67
2022/04/27 03:04:07;;;;;;;;;23.67;22.33;;;;;10.04;54.78;101703.84;5002127;28;45536;-68
2022/04/27 03:06:32;;;;;;;;;22.67;22.67;;;;;10.21;54.19;101731.81;4996994;28;45737;-68
2022/04/27 03:08:58;;;;;;;;;19.00;16.00;;;;;10.01;54.69;101712.06;4997092;28;45320;-69
2022/04/27 03:11:23;;;;;;;;;28.00;22.33;;;;;10.08;54.72;101720.41;5007331;28;45855;-68
2022/04/27 03:13:50;;;;;;;;;22.67;21.67;;;;;10.14;55.19;101727.03;5015632;28;45532;-68
2022/04/27 03:16:15;;;;;;;;;24.33;23.33;;;;;10.02;55.08;101721.72;5031491;28;47866;-70
2022/04/27 03:18:42;;;;;;;;;29.00;24.67;;;;;9.75;55.46;101682.13;5015959;28;45507;-68
2022/04/27 03:21:07;;;;;;;;;24.67;21.00;;;;;10.00;55.19;101701.53;5007098;28;45245;-69
2022/04/27 03:23:33;;;;;;;;;26.67;24.33;;;;;9.94;55.30;101715.28;4996360;28;45306;-69
2022/04/27 03:25:58;;;;;;;;;28.00;22.67;;;;;9.84;56.02;101717.78;4978247;28;46675;-67
2022/04/27 03:28:24;;;;;;;;;29.33;25.33;;;;;9.90;55.80;101721.78;4996085;28;45366;-69
2022/04/27 03:30:49;;;;;;;;;23.00;21.33;;;;;9.88;56.17;101735.19;5001792;28;45356;-68
2022/04/27 03:33:16;;;;;;;;;24.00;24.00;;;;;9.78;56.42;101720.88;5015920;28;45468;-70
2022/04/27 03:35:42;;;;;;;;;24.33;21.67;;;;;9.77;56.32;101716.53;5016075;28;46699;-68
2022/04/27 03:38:09;;;;;;;;;27.33;24.67;;;;;9.79;56.43;101714.63;5015877;28;45205;-68
2022/04/27 03:40:35;;;;;;;;;24.67;21.00;;;;;9.65;56.69;101702.41;5015683;28;45511;-68
2022/04/27 03:43:01;;;;;;;;;28.67;26.00;;;;;9.49;56.42;101669.97;5016401;28;45535;-70
2022/04/27 03:45:27;;;;;;;;;30.00;28.00;;;;;9.44;56.81;101691.56;5015800;28;46135;-70
2022/04/27 03:47:52;;;;;;;;;31.33;31.33;;;;;9.10;56.82;101616.25;5015792;28;45247;-68
2022/04/27 03:50:18;;;;;;;;;24.33;21.33;;;;;9.55;57.10;101706.69;4997235;28;45372;-68
2022/04/27 03:52:44;;;;;;;;;26.33;26.33;;;;;9.61;57.10;101726.59;4996204;28;45408;-68
2022/04/27 03:55:11;;;;;;;;;25.67;25.67;;;;;9.49;57.75;101720.41;4995584;28;45392;-67
2022/04/27 03:57:37;;;;;;;;;30.33;29.33;;;;;9.57;57.55;101719.84;4995621;28;45407;-68
2022/04/27 04:00:05;;;;;;;;;34.67;30.33;;;;;9.53;57.92;101729.84;4978009;28;45512;-69
2022/04/27 04:02:30;;;;;;;;;30.00;27.00;;;;;9.30;57.78;101694.38;4996502;28;45574;-69
2022/04/27 04:04:56;;;;;;;;;32.00;29.33;;;;;9.28;58.50;101714.88;5010248;28;48594;-68
2022/04/27 04:07:21;;;;;;;;;28.67;25.67;;;;;9.43;58.26;101729.69;5015407;28;45346;-67
2022/04/27 04:09:47;;;;;;;;;33.33;30.00;;;;;9.32;58.40;101721.66;5015671;28;45431;-68
2022/04/27 04:12:13;;;;;;;;;36.00;32.00;;;;;8.91;58.40;101641.56;4999149;28;45575;-68
2022/04/27 04:14:39;;;;;;;;;35.00;29.33;;;;;9.39;58.86;101728.19;4995238;28;46095;-67
2022/04/27 04:17:05;;;;;;;;;34.00;28.67;;;;;9.39;58.71;101743.25;4977562;28;45272;-69
2022/04/27 04:19:32;;;;;;;;;35.75;32.50;;;;;9.38;58.61;101739.78;4995842;28;45482;-69
2022/04/27 04:21:57;;;;;;;;;29.00;26.33;;;;;9.20;58.80;101706.59;5008718;28;45495;-68
2022/04/27 04:24:23;;;;;;;;;32.75;30.25;;;;;9.07;59.43;101722.59;5015830;28;46612;-67
2022/04/27 04:29:33;;;;;;;;;35.00;31.25;;;;;8.95;59.88;101706.69;5018879;28;45444;-69
2022/04/27 04:31:58;;;;;;;;;32.50;28.75;;;;;9.15;59.89;101740.59;5023544;28;45492;-67
2022/04/27 04:34:24;;;;;;;;;40.75;34.50;;;;;9.00;59.97;101710.69;4998709;28;46668;-69
2022/04/27 04:36:49;;;;;;;;;31.25;29.75;;;;;9.10;59.86;101737.44;4998782;28;45326;-68
2022/04/27 04:39:15;;;;;;;;;38.00;32.00;;;;;8.95;59.92;101727.91;4998689;28;45531;-69
2022/04/27 04:41:40;;;;;;;;;38.75;31.75;;;;;9.11;60.12;101744.44;4980743;28;45610;-68
2022/04/27 04:44:06;;;;;;;;;37.75;32.00;;;;;9.05;60.24;101736.91;4998413;28;45616;-68
2022/04/27 04:46:31;;;;;;;;;35.00;27.75;;;;;9.20;59.71;101746.41;4998622;28;45223;-69
2022/04/27 04:48:57;;;;;;;;;36.50;34.50;;;;;9.07;60.07;101727.03;4998376;28;45399;-68
2022/04/27 04:51:22;;;;;;;;;35.50;31.50;;;;;8.87;59.37;101699.31;4997430;28;45433;-68
2022/04/27 04:53:48;;;;;;;;;38.25;32.50;;;;;9.13;59.61;101747.81;4998286;28;46428;-68
2022/04/27 04:56:13;;;;;;;;;37.75;33.50;;;;;9.06;60.29;101752.72;4998101;28;45327;-69
2022/04/27 04:58:39;;;;;;;;;39.25;35.50;;;;;9.16;59.96;101763.50;4998066;28;45240;-70
2022/04/27 05:01:04;;;;;;;;;38.75;34.00;;;;;9.13;59.89;101763.72;5006617;28;45440;-67
2022/04/27 05:03:30;;;;;;;;;30.00;28.75;;;;;9.04;60.48;101751.16;5000770;28;45660;-69
2022/04/27 05:05:56;;;;;;;;;35.00;30.75;;;;;8.90;60.77;101730.06;4998193;28;45427;-70
2022/04/27 05:08:21;;;;;;;;;21.33;20.00;;;;;9.01;59.97;101743.38;4998369;28;45309;-69
2022/04/27 05:10:47;;;;;;;;;36.25;34.00;;;;;9.07;60.23;101742.97;4996761;28;45363;-68
2022/04/27 05:13:12;;;;;;;;;39.67;34.33;;;;;9.09;59.99;101736.59;4984741;28;47488;-68
2022/04/27 05:15:39;;;;;;;;;37.00;31.25;;;;;8.93;59.94;101704.16;4997823;28;45458;-68
2022/04/27 05:18:05;;;;;;;;;36.00;33.50;;;;;8.57;59.74;101640.50;4998391;28;45393;-69
2022/04/27 05:20:31;;;;;;;;;45.50;34.75;;;;;8.54;59.91;101636.25;5000315;28;45312;-68
2022/04/27 05:22:56;;;;;;;;;43.25;35.00;;;;;9.23;60.34;101769.25;5017416;28;46566;-68
2022/04/27 05:25:22;;;;;;;;;38.75;35.00;;;;;9.10;60.64;101763.97;5017853;28;45326;-71
2022/04/27 05:27:48;;;;;;;;;47.75;39.25;;;;;9.16;60.32;101768.81;5017864;28;45314;-69
2022/04/27 05:32:58;;;;;;;;;38.25;34.00;;;;;9.13;60.25;101763.72;5010665;28;45775;-67
2022/04/27 05:35:23;;;;;;;;;41.75;36.50;;;;;9.17;60.56;101791.72;5026632;28;45748;-67
2022/04/27 05:37:49;;;;;;;;;43.00;35.50;;;;;8.47;60.27;101659.72;5010672;28;45481;-71
2022/04/27 05:40:15;;;;;;;;;46.00;35.25;;;;;9.33;59.98;101792.34;5013875;28;45508;-70
2022/04/27 05:42:40;;;;;;;;;44.00;37.25;;;;;9.35;59.89;101781.59;5014477;28;47300;-69
2022/04/27 05:45:10;;;;;;;;;32.67;30.67;;;;;9.30;59.62;101766.03;5004535;28;45488;-68
2022/04/27 05:47:36;;;;;;;;;44.25;35.50;;;;;9.29;59.71;101790.88;5016646;28;45400;-68
2022/04/27 05:50:04;;;;;;;;;40.75;35.75;;;;;9.24;60.44;101787.72;4999567;28;45539;-69
2022/04/27 05:52:30;;;;;;;;;40.25;34.50;;;;;9.38;59.96;101808.78;5017697;28;45769;-70
2022/04/27 05:54:56;;;;;;;;;42.50;36.75;;;;;9.41;59.99;101795.31;5011964;28;45231;-69
2022/04/27 05:57:21;;;;;;;;;43.50;35.00;;;;;9.36;59.59;101789.47;4996367;28;45387;-72
2022/04/27 05:59:47;;;;;;;;;42.00;34.25;;;;;8.73;59.51;101676.41;4998043;28;45437;-68
2022/04/27 06:02:13;;;;;;;;;34.75;30.75;;;;;9.37;59.51;101792.97;4997361;28;46103;-71
2022/04/27 06:04:38;;;;;;;;;43.00;37.00;;;;;9.43;59.23;101774.81;4996264;28;45837;-67
2022/04/27 06:07:06;;;;;;;;;42.75;37.50;;;;;8.86;58.50;101665.78;5000395;28;45239;-68
2022/04/27 06:09:32;;;;;;;;;41.75;35.00;;;;;9.72;59.23;101811.66;5017077;28;45330;-67
2022/04/27 06:11:57;;;;;;;;;36.00;30.00;;;;;9.85;58.62;101801.81;5016955;28;45635;-69
2022/04/27 06:14:25;;;;;;;;;45.25;36.00;;;;;10.10;57.89;101823.91;5016710;28;45214;-68
2022/04/27 06:16:51;;;;;;;;;40.00;34.33;;;;;10.15;57.87;101832.38;4999266;28;45318;-69
2022/04/27 06:19:17;;;;;;;;;43.75;37.50;;;;;10.14;57.47;101818.25;5006343;28;45507;-66
2022/04/27 06:21:42;;;;;;;;;39.00;34.50;;;;;9.69;57.50;101751.66;5007873;28;46478;-75
2022/04/27 06:24:08;;;;;;;;;44.75;34.25;;;;;10.26;57.70;101832.47;5008291;28;45449;-68
2022/04/27 06:26:33;;;;;;;;;41.25;36.50;;;;;10.43;56.85;101821.41;5004398;28;45544;-69
2022/04/27 06:29:00;;;;;;;;;44.25;37.00;;;;;10.14;56.83;101761.59;5017278;28;45571;-69
2022/04/27 06:31:25;;;;;;;;;43.00;37.00;;;;;10.85;56.40;101829.72;5005219;28;46832;-68
2022/04/27 06:33:51;;;;;;;;;44.50;37.75;;;;;11.42;55.05;101837.56;5016574;28;45201;-70
2022/04/27 06:36:17;;;;;;;;;45.33;37.00;;;;;11.97;53.44;101818.94;5017308;28;45265;-68
2022/04/27 06:38:42;;;;;;;;;43.33;36.33;;;;;11.90;51.68;101714.69;5016082;28;45536;-67
2022/04/27 06:41:08;;;;;;;;;36.67;32.67;;;;;13.30;50.29;101851.16;4980095;28;46206;-68
2022/04/27 06:43:34;;;;;;;;;45.00;36.50;;;;;13.85;48.64;101843.56;4979909;28;45477;-69
2022/04/27 06:46:00;;;;;;;;;41.67;34.67;;;;;14.16;47.80;101847.81;5014592;28;45600;-70
2022/04/27 06:48:26;;;;;;;;;36.33;32.00;;;;;14.43;46.79;101838.25;5015363;28;45548;-75
2022/04/27 06:50:52;;;;;;;;;42.33;36.00;;;;;14.76;45.96;101842.28;5016354;28;46388;-72
2022/04/27 06:53:17;;;;;;;;;40.33;34.67;;;;;14.85;44.78;101831.56;5031132;28;45713;-69
2022/04/27 06:55:43;;;;;;;;;40.00;35.00;;;;;15.13;44.55;101847.69;5016988;28;45329;-68
2022/04/27 06:58:09;;;;;;;;;44.33;37.00;;;;;15.43;44.10;101834.03;5016619;28;45536;-69
2022/04/27 07:00:37;;;;;;;;;38.33;32.67;;;;;15.83;43.31;101846.22;4998343;28;46826;-69
2022/04/27 07:03:05;;;;;;;;;40.00;34.67;;;;;15.91;42.51;101857.03;5016329;28;45555;-68
2022/04/27 07:05:30;;;;;;;;;34.33;31.00;;;;;16.11;42.20;101842.47;5016390;28;45266;-70
2022/04/27 07:07:58;;;;;;;;;38.00;35.00;;;;;16.07;41.45;101819.66;5016048;28;45270;-69
2022/04/27 07:10:24;;;;;;;;;39.00;35.67;;;;;16.49;41.48;101850.34;4998389;28;47078;-70
2022/04/27 07:12:50;;;;;;;;;38.33;32.67;;;;;16.54;40.87;101821.19;5016394;28;45434;-69
2022/04/27 07:15:16;;;;;;;;;37.67;32.33;;;;;16.93;39.96;101824.34;5016756;28;45538;-69
2022/04/27 07:17:42;;;;;;;;;36.67;34.00;;;;;17.23;39.33;101850.72;5008803;28;45464;-69
2022/04/27 07:20:09;;;;;;;;;37.33;32.33;;;;;17.40;39.40;101856.16;4996076;28;46611;-69
2022/04/27 07:22:35;;;;;;;;;46.67;37.00;;;;;17.18;38.92;101830.69;5011078;28;45615;-70
2022/04/27 07:25:01;;;;;;;;;38.67;34.00;;;;;17.47;38.83;101857.19;4997521;28;45208;-71
2022/04/27 07:27:27;;;;;;;;;40.67;35.00;;;;;17.57;38.48;101815.72;5009051;28;45460;-68
2022/04/27 07:29:53;;;;;;;;;41.00;35.67;;;;;17.68;37.99;101779.66;5014208;28;45350;-70
2022/04/27 07:32:19;;;;;;;;;34.33;33.33;;;;;17.78;37.22;101769.56;5003757;28;45389;-69
2022/04/27 07:34:45;;;;;;;;;39.33;35.00;;;;;18.60;36.48;101861.13;5004816;28;45502;-71
2022/04/27 07:37:11;;;;;;;;;39.33;35.00;;;;;18.72;36.55;101862.50;5008787;28;45469;-71
2022/04/27 07:39:37;;;;;;;;;41.00;34.67;;;;;19.08;36.74;101871.88;4985787;28;47221;-69
2022/04/27 07:42:03;;;;;;;;;40.33;36.00;;;;;19.28;35.61;101844.50;5016765;28;45480;-68
2022/04/27 07:44:29;;;;;;;;;37.67;34.67;;;;;19.57;35.00;101869.03;5014797;28;45848;-74
2022/04/27 07:46:55;;;;;;;;;40.00;34.33;;;;;19.70;34.69;101866.59;5009720;28;45504;-68
2022/04/27 07:49:20;;;;;;;;;45.33;37.67;;;;;19.50;34.44;101838.34;4995881;28;46489;-69
2022/04/27 07:51:50;;;;;;;;;34.00;33.00;;;;;19.78;34.82;101870.25;5007253;28;45412;-69
2022/04/27 07:54:16;;;;;;;;;35.67;30.67;;;;;19.72;34.45;101821.41;5015732;28;45472;-70
2022/04/27 07:56:42;;;;;;;;;39.00;35.33;;;;;19.53;34.20;101815.56;5015240;28;45440;-70
2022/04/27 07:59:08;;;;;;;;;34.00;30.33;;;;;19.22;34.37;101845.19;5015738;28;46508;-69
2022/04/27 08:01:34;;;;;;;;;39.33;34.67;;;;;19.33;34.93;101878.03;5010328;28;45468;-69
2022/04/27 08:03:59;;;;;;;;;45.67;35.00;;;;;19.52;34.57;101865.97;5019189;28;45440;-71
2022/04/27 08:06:25;;;;;;;;;42.67;36.00;;;;;19.60;34.71;101857.03;5014780;28;45452;-70
2022/04/27 08:08:50;;;;;;;;;39.00;35.67;;;;;19.78;34.41;101873.81;5016535;28;46482;-68
2022/04/27 08:11:16;;;;;;;;;35.00;33.33;;;;;19.90;34.20;101826.53;5018642;28;45527;-69
2022/04/27 08:13:43;;;;;;;;;38.33;34.67;;;;;20.02;33.58;101853.91;5012119;28;45408;-70
2022/04/27 08:16:10;;;;;;;;;38.67;33.00;;;;;20.17;33.30;101867.50;5014885;28;45555;-68
2022/04/27 08:18:36;;;;;;;;;36.00;31.33;;;;;20.27;33.34;101874.34;4994838;28;46173;-72
2022/04/27 08:21:15;;;;;;;;;40.33;36.00;;;;;20.12;33.61;101873.44;5004433;28;45483;-69
2022/04/27 08:23:42;;;;;;;;;34.33;32.67;;;;;20.31;33.69;101855.91;5007800;28;45675;-70
2022/04/27 08:26:10;;;;;;;;;41.00;34.67;;;;;20.72;32.82;101885.31;5017905;28;45569;-70
2022/04/27 08:28:39;;;;;;;;;37.67;33.67;;;;;20.74;32.65;101869.75;5013661;28;47109;-70
2022/04/27 08:31:07;;;;;;;;;42.33;35.00;;;;;21.00;32.38;101883.69;5017809;28;45425;-71
2022/04/27 08:33:33;;;;;;;;;34.67;32.00;;;;;21.04;32.41;101859.84;5015409;28;45411;-71
2022/04/27 08:36:00;;;;;;;;;38.33;33.33;;;;;20.91;31.99;101782.91;5004813;28;45375;-71
2022/04/27 08:38:27;;;;;;;;;36.00;32.67;;;;;21.10;31.46;101862.63;5004426;28;45835;-69
2022/04/27 08:40:53;;;;;;;;;38.00;34.33;;;;;21.10;32.43;101886.97;4988678;28;45500;-70
2022/04/27 08:43:21;;;;;;;;;39.00;35.33;;;;;21.71;31.71;101875.97;5009115;28;45603;-69
2022/04/27 08:45:47;;;;;;;;;41.67;35.67;;;;;22.02;30.96;101870.25;5009216;28;45653;-70
2022/04/27 08:48:17;;;;;;;;;24.67;22.33;;;;;22.23;30.70;101858.66;4996874;28;47291;-69
2022/04/27 08:50:43;;;;;;;;;37.33;33.33;;;;;22.43;30.46;101884.91;5013200;28;45432;-68
2022/04/27 08:53:09;;;;;;;;;41.00;35.33;;;;;22.83;30.15;101874.44;5018341;28;45231;-69
2022/04/27 08:55:40;;;;;;;;;29.33;25.67;;;;;23.23;29.79;101875.53;5000573;28;45458;-71
2022/04/27 08:58:09;;;;;;;;;40.33;34.00;;;;;22.95;29.22;101763.50;5005616;28;45787;-70
2022/04/27 09:00:35;;;;;;;;;42.00;35.67;;;;;23.95;28.36;101858.72;5013424;28;45444;-69
2022/04/27 09:03:27;;;;;;;;;44.33;38.67;;;;;24.11;28.28;101875.69;5004744;28;45370;-68
2022/04/27 09:06:04;;;;;;;;;34.33;30.67;;;;;23.87;28.14;101874.38;4988245;28;45362;-68
2022/04/27 09:08:40;;;;;;;;;45.00;37.67;;;;;23.71;27.94;101878.28;4991410;28;45502;-69
2022/04/27 09:11:16;;;;;;;;;32.00;29.33;;;;;24.06;28.40;101870.88;4996809;28;45429;-68
2022/04/27 09:13:46;;;;;;;;;39.33;33.00;;;;;24.87;27.61;101865.31;4980546;28;45482;-69
2022/04/27 09:16:13;;;;;;;;;37.33;31.67;;;;;25.77;25.82;101872.59;5004161;28;45532;-67
2022/04/27 09:22:02;;;;;;;;;41.67;34.00;;;;;27.61;23.17;101876.72;5017329;28;45435;-69
2022/04/27 09:24:29;;;;;;;;;39.00;33.67;;;;;28.24;22.21;101846.22;5017324;28;45298;-69
2022/04/27 09:27:14;;;;;;;;;37.33;32.00;;;;;29.19;22.13;101867.09;4999443;28;45423;-68
2022/04/27 09:29:40;;;;;;;;;39.67;34.67;;;;;30.05;20.70;101865.34;5014143;28;48858;-68
2022/04/27 09:32:06;;;;;;;;;38.00;33.33;;;;;30.18;20.38;101879.56;5016753;28;45388;-68
2022/04/27 09:34:52;;;;;;;;;37.33;32.67;;;;;30.35;20.28;101876.03;5011779;28;45479;-67
2022/04/27 09:37:24;;;;;;;;;32.67;30.67;;;;;31.14;19.63;101852.84;4998870;28;45698;-66
2022/04/27 09:40:13;;;;;;;;;44.33;37.00;;;;;31.20;19.48;101874.91;4979572;28;46580;-68
2022/04/27 09:42:46;;;;;;;;;41.33;35.00;;;;;31.37;19.21;101846.28;5007352;28;45449;-69
2022/04/27 09:45:15;;;;;;;;;44.67;37.67;;;;;31.76;19.05;101866.28;5000782;28;45517;-69
2022/04/27 09:47:49;;;;;;;;;42.33;34.33;;;;;31.44;18.74;101824.94;4995773;28;45656;-69
2022/04/27 09:50:16;;;;;;;;;31.00;29.33;;;;;31.16;19.28;101864.41;5016989;28;46479;-69
2022/04/27 09:52:43;;;;;;;;;45.33;38.67;;;;;31.01;19.52;101849.63;4998378;28;45376;-69
2022/04/27 09:55:10;;;;;;;;;42.33;36.33;;;;;30.27;20.03;101874.53;5000449;28;45496;-68
2022/04/27 09:57:44;;;;;;;;;36.00;33.00;;;;;29.88;21.03;101868.84;4996252;28;45444;-68
2022/04/27 10:00:12;;;;;;;;;35.00;32.33;;;;;30.55;20.53;101848.91;4997247;28;45801;-68
2022/04/27 10:02:46;;;;;;;;;33.33;31.67;;;;;30.91;20.46;101861.31;5000359;28;45610;-70
2022/04/27 10:05:11;;;;;;;;;38.00;33.67;;;;;31.05;19.49;101848.88;5022569;28;45416;-71
2022/04/27 10:07:37;;;;;;;;;42.00;36.00;;;;;29.87;20.40;101828.81;4995152;28;45622;-70
2022/04/27 10:10:04;;;;;;;;;36.33;33.33;;;;;29.16;21.81;101857.47;4982930;28;47149;-69
2022/04/27 10:12:38;;;;;;;;;40.00;33.33;;;;;28.38;22.62;101844.13;4997032;28;45603;-69
2022/04/27 10:15:05;;;;;;;;;34.33;33.00;;;;;27.37;23.68;101837.50;4995297;28;45457;-70
2022/04/27 10:17:31;;;;;;;;;30.33;30.33;;;;;26.13;24.78;101835.72;4995646;28;45452;-68
2022/04/27 10:19:57;;;;;;;;;40.33;32.67;;;;;24.85;26.69;101835.59;4995393;28;46628;-69
2022/04/27 10:22:31;;;;;;;;;40.00;37.00;;;;;24.17;27.90;101824.06;4995010;28;45469;-68
2022/04/27 10:25:07;;;;;;;;;40.00;32.33;;;;;23.55;28.74;101816.16;4978196;28;45486;-67
2022/04/27 10:27:33;;;;;;;;;31.67;31.33;;;;;23.01;30.14;101835.94;4961845;28;45416;-68
2022/04/27 10:30:10;;;;;;;;;43.33;37.00;;;;;22.12;31.50;101832.91;4977227;28;46263;-67
2022/04/27 10:32:43;;;;;;;;;41.33;35.67;;;;;21.48;32.60;101824.69;4978778;28;45236;-67
2022/04/27 10:35:12;;;;;;;;;38.00;33.00;;;;;21.40;32.68;101816.66;4979148;28;45268;-67
2022/04/27 10:37:50;;;;;;;;;32.67;31.00;;;;;20.99;33.36;101813.56;4997207;28;45403;-68
2022/04/27 10:40:42;;;;;;;;;37.67;32.67;;;;;20.66;33.68;101813.94;4979268;28;46902;-68
2022/04/27 10:43:08;;;;;;;;;30.00;28.67;;;;;20.39;34.68;101798.28;4973653;28;45409;-67
2022/04/27 10:45:35;;;;;;;;;44.00;36.00;;;;;20.22;35.38;101811.94;4996929;28;45393;-69
2022/04/27 10:48:04;;;;;;;;;38.00;33.00;;;;;19.88;34.76;101776.44;4996920;28;45239;-69
2022/04/27 10:50:33;;;;;;;;;34.67;32.67;;;;;20.14;34.97;101817.41;4996280;28;45803;-69
2022/04/27 10:53:24;;;;;;;;;32.33;32.00;;;;;20.06;34.81;101822.88;4996661;28;45497;-69
2022/04/27 10:55:54;;;;;;;;;31.33;29.67;;;;;19.99;35.13;101811.09;4996940;28;45560;-69
2022/04/27 10:58:32;;;;;;;;;32.00;30.33;;;;;19.75;35.50;101791.34;4979247;28;45462;-68
2022/04/27 11:00:58;;;;;;;;;33.33;31.00;;;;;19.67;35.69;101801.38;4996393;28;45829;-68
2022/04/27 11:03:31;;;;;;;;;35.00;32.00;;;;;19.42;36.38;101781.72;4996576;28;45287;-67
2022/04/27 11:05:58;;;;;;;;;38.00;33.33;;;;;19.05;36.89;101783.28;4978671;28;45375;-68
2022/04/27 11:08:56;;;;;;;;;31.33;29.00;;;;;19.18;36.84;101789.94;4996796;28;45474;-69
2022/04/27 11:11:26;;;;;;;;;33.67;32.67;;;;;19.23;36.68;101777.63;4992199;28;45930;-66
2022/04/27 11:14:00;;;;;;;;;29.00;27.67;;;;;18.98;36.98;101794.91;4996429;28;45480;-68
2022/04/27 11:16:26;;;;;;;;;29.33;24.00;;;;;19.03;36.47;101796.09;4996711;28;45507;-70
2022/04/27 11:18:56;;;;;;;;;32.00;29.67;;;;;18.85;36.76;101792.78;4995506;28;45640;-69
2022/04/27 11:21:25;;;;;;;;;30.33;25.33;;;;;18.74;36.40;101776.94;4995750;28;45443;-68
2022/04/27 11:23:51;;;;;;;;;23.33;23.33;;;;;18.88;36.82;101795.13;4978268;28;45456;-69
2022/04/27 11:26:17;;;;;;;;;31.67;29.33;;;;;18.71;36.48;101777.31;4996469;28;45473;-66
2022/04/27 11:28:45;;;;;;;;;30.00;25.67;;;;;18.69;36.85;101779.34;4996303;28;45620;-68